createdAt,value
2019-04-07T00:00:55.467Z,1.5
2019-04-07T00:02:06.252Z,1.48
2019-04-07T00:03:16.387Z,1.58
2019-04-07T00:04:28.109Z,1.56
2019-04-07T00:05:38.902Z,1.53
2019-04-07T00:06:49.133Z,1.5
2019-04-07T00:08:00.613Z,1.57
2019-04-07T00:09:10.892Z,1.61
2019-04-07T00:10:20.956Z,1.56
2019-04-07T00:11:31.451Z,1.53
2019-04-07T00:12:41.513Z,1.5
2019-04-07T00:13:52.321Z,1.46
2019-04-07T00:15:03.665Z,1.46
2019-04-07T00:16:14.620Z,1.45
2019-04-07T00:17:25.445Z,1.43
2019-04-07T00:18:35.749Z,1.45
2019-04-07T00:19:47.159Z,1.45
2019-04-07T00:20:57.812Z,1.34
2019-04-07T00:22:09.236Z,1.36
2019-04-07T00:23:20.090Z,1.27
2019-04-07T00:24:30.287Z,1.38
2019-04-07T00:25:41.446Z,1.39
2019-04-07T00:26:52.470Z,1.38
2019-04-07T00:28:03.341Z,1.38
2019-04-07T00:29:14.440Z,1.4
2019-04-07T00:30:25.007Z,1.39
2019-04-07T00:31:35.502Z,1.38
2019-04-07T00:32:46.808Z,1.42
2019-04-07T00:33:58.198Z,1.31
2019-04-07T00:35:09.058Z,1.3
2019-04-07T00:36:36.593Z,1.31
2019-04-07T00:37:48.139Z,1.18
2019-04-07T00:38:58.630Z,1.31
2019-04-07T00:40:10.161Z,1.3
2019-04-07T00:41:20.976Z,1.21
2019-04-07T00:42:32.609Z,1.28
2019-04-07T00:43:43.843Z,1.24
2019-04-07T00:44:54.431Z,1.25
2019-04-07T00:46:05.620Z,1.24
2019-04-07T00:47:16.850Z,1.22
2019-04-07T00:48:27.490Z,1.13
2019-04-07T00:49:37.441Z,1.21
2019-04-07T00:50:48.758Z,1.16
2019-04-07T00:51:59.584Z,1.09
2019-04-07T00:53:11.235Z,1.14
2019-04-07T00:54:22.648Z,1.04
2019-04-07T00:55:33.317Z,1.03
2019-04-07T00:56:43.980Z,0.95
2019-04-07T00:57:54.295Z,0.96
2019-04-07T00:59:05.279Z,1
2019-04-07T01:00:17.055Z,0.99
2019-04-07T01:01:29.567Z,1
2019-04-07T01:02:40.800Z,0.99
2019-04-07T01:03:52.702Z,0.96
2019-04-07T01:05:04.228Z,0.96
2019-04-07T01:06:15.335Z,0.89
2019-04-07T01:07:25.820Z,0.88
2019-04-07T01:08:36.165Z,0.86
2019-04-07T01:09:47.296Z,0.89
2019-04-07T01:10:58.392Z,0.92
2019-04-07T01:12:09.372Z,0.89
2019-04-07T01:13:19.833Z,0.82
2019-04-07T01:14:30.479Z,0.76
2019-04-07T01:15:41.982Z,0.73
2019-04-07T01:16:53.162Z,0.7
2019-04-07T01:18:04.234Z,0.74
2019-04-07T01:19:14.853Z,0.64
2019-04-07T01:20:26.890Z,0.74
2019-04-07T01:21:38.183Z,0.73
2019-04-07T01:22:48.745Z,0.74
2019-04-07T01:23:59.351Z,0.82
2019-04-07T01:25:11.313Z,0.82
2019-04-07T01:26:22.077Z,0.92
2019-04-07T01:27:33.689Z,0.91
2019-04-07T01:28:44.201Z,0.78
2019-04-07T01:29:55.209Z,0.85
2019-04-07T01:31:07.067Z,0.91
2019-04-07T01:32:17.540Z,0.85
2019-04-07T01:33:28.894Z,0.81
2019-04-07T01:34:40.315Z,0.76
2019-04-07T01:35:55.406Z,0.74
2019-04-07T01:37:06.047Z,0.68
2019-04-07T01:38:17.882Z,0.7
2019-04-07T01:39:29.452Z,0.58
2019-04-07T01:40:40.210Z,0.61
2019-04-07T01:41:51.076Z,0.51
2019-04-07T01:43:01.491Z,0.51
2019-04-07T01:44:12.854Z,0.49
2019-04-07T01:45:23.872Z,0.44
2019-04-07T01:46:35.422Z,0.29
2019-04-07T01:47:45.872Z,0.37
2019-04-07T01:48:57.296Z,0.31
2019-04-07T01:50:08.210Z,0.31
2019-04-07T01:51:18.436Z,0.42
2019-04-07T01:52:28.889Z,0.36
2019-04-07T01:53:39.294Z,0.4
2019-04-07T01:54:49.862Z,0.36
2019-04-07T01:56:00.271Z,0.42
2019-04-07T01:57:10.706Z,0.45
2019-04-07T01:58:22.619Z,0.45
2019-04-07T01:59:33.407Z,0.47
2019-04-07T02:00:45.531Z,0.44
2019-04-07T02:01:57.098Z,0.51
2019-04-07T02:03:08.762Z,0.49
2019-04-07T02:04:19.552Z,0.47
2019-04-07T02:05:30.095Z,0.47
2019-04-07T02:06:41.265Z,0.44
2019-04-07T02:07:52.325Z,0.47
2019-04-07T02:09:02.878Z,0.44
2019-04-07T02:10:14.994Z,0.48
2019-04-07T02:11:26.432Z,0.45
2019-04-07T02:12:37.646Z,0.49
2019-04-07T02:13:49.271Z,0.42
2019-04-07T02:15:00.075Z,0.39
2019-04-07T02:16:10.558Z,0.45
2019-04-07T02:17:21.051Z,0.33
2019-04-07T02:18:32.042Z,0.39
2019-04-07T02:19:43.193Z,0.47
2019-04-07T02:20:55.678Z,0.44
2019-04-07T02:22:07.802Z,0.44
2019-04-07T02:23:17.755Z,0.48
2019-04-07T02:24:29.939Z,0.48
2019-04-07T02:25:40.525Z,0.44
2019-04-07T02:26:52.321Z,0.39
2019-04-07T02:28:03.492Z,0.36
2019-04-07T02:29:14.228Z,0.31
2019-04-07T02:30:24.904Z,0.39
2019-04-07T02:31:35.838Z,0.3
2019-04-07T02:32:46.736Z,0.3
2019-04-07T02:33:57.642Z,0.47
2019-04-07T02:35:08.784Z,0.45
2019-04-07T02:36:33.746Z,0.36
2019-04-07T02:37:45.821Z,0.37
2019-04-07T02:38:58.044Z,0.31
2019-04-07T02:40:09.735Z,0.3
2019-04-07T02:41:21.101Z,0.3
2019-04-07T02:42:33.029Z,0.3
2019-04-07T02:43:45.220Z,0.33
2019-04-07T02:44:57.435Z,0.33
2019-04-07T02:46:08.289Z,0.31
2019-04-07T02:47:21.331Z,0.33
2019-04-07T02:48:35.123Z,0.34
2019-04-07T02:49:46.128Z,0.44
2019-04-07T02:50:57.595Z,0.39
2019-04-07T02:52:09.143Z,0.48
2019-04-07T02:53:21.828Z,0.45
2019-04-07T02:54:32.738Z,0.42
2019-04-07T02:55:45.205Z,0.44
2019-04-07T02:56:57.290Z,0.48
2019-04-07T02:58:10.287Z,0.61
2019-04-07T02:59:23.119Z,0.58
2019-04-07T03:00:34.615Z,0.76
2019-04-07T03:01:46.715Z,0.77
2019-04-07T03:02:58.253Z,0.74
2019-04-07T03:04:10.029Z,0.81
2019-04-07T03:05:22.203Z,0.88
2019-04-07T03:06:53.510Z,0.82
2019-04-07T03:08:04.518Z,0.84
2019-04-07T03:09:18.695Z,0.74
2019-04-07T03:10:29.911Z,0.55
2019-04-07T03:11:42.931Z,0.36
2019-04-07T03:12:54.090Z,0.29
2019-04-07T03:14:07.123Z,0.18
2019-04-07T03:15:19.354Z,0.08
2019-04-07T03:16:31.083Z,0.06
2019-04-07T03:17:42.330Z,-0.06
2019-04-07T03:18:53.452Z,-0.12
2019-04-07T03:20:05.618Z,-0.18
2019-04-07T03:21:19.457Z,-0.1
2019-04-07T03:22:32.417Z,-0.1
2019-04-07T03:23:44.164Z,-0.15
2019-04-07T03:24:55.593Z,-0.12
2019-04-07T03:26:07.872Z,-0.03
2019-04-07T03:27:18.894Z,-0.07
2019-04-07T03:28:33.015Z,0.06
2019-04-07T03:29:45.353Z,0.08
2019-04-07T03:30:59.705Z,0.06
2019-04-07T03:32:23.833Z,0.23
2019-04-07T03:33:48.821Z,0.16
2019-04-07T03:35:06.349Z,0.24
2019-04-07T03:36:30.175Z,0.33
2019-04-07T03:38:36.624Z,0.34
2019-04-07T03:39:49.261Z,0.34
2019-04-07T03:41:00.290Z,0.39
2019-04-07T03:42:11.151Z,0.34
2019-04-07T03:43:24.085Z,0.29
2019-04-07T03:44:34.781Z,0.18
2019-04-07T03:45:46.025Z,0.2
2019-04-07T03:46:57.435Z,0.24
2019-04-07T03:48:10.266Z,0.2
2019-04-07T03:49:23.323Z,0.13
2019-04-07T03:50:34.647Z,0.16
2019-04-07T03:51:46.405Z,0.19
2019-04-07T03:52:57.390Z,0.16
2019-04-07T03:54:08.911Z,0.18
2019-04-07T03:55:24.516Z,0.16
2019-04-07T03:56:37.221Z,0.15
2019-04-07T03:57:49.322Z,0.15
2019-04-07T03:59:01.019Z,0.02
2019-04-07T04:00:11.245Z,0.02
2019-04-07T04:01:24.025Z,0.06
2019-04-07T04:02:37.869Z,0.12
2019-04-07T04:03:51.330Z,0.09
2019-04-07T04:05:03.342Z,-0.02
2019-04-07T04:06:14.211Z,0.05
2019-04-07T04:07:40.212Z,-0.03
2019-04-07T04:08:51.410Z,-0.03
2019-04-07T04:10:03.211Z,-0.07
2019-04-07T04:11:15.149Z,-0.15
2019-04-07T04:12:28.128Z,-0.21
2019-04-07T04:13:38.365Z,-0.21
2019-04-07T04:14:50.763Z,-0.28
2019-04-07T04:16:01.561Z,-0.33
2019-04-07T04:17:16.332Z,-0.31
2019-04-07T04:18:28.839Z,-0.33
2019-04-07T04:19:40.640Z,-0.33
2019-04-07T04:20:52.731Z,-0.39
2019-04-07T04:22:07.362Z,-0.44
2019-04-07T04:23:20.166Z,-0.42
2019-04-07T04:24:31.425Z,-0.35
2019-04-07T04:25:43.205Z,-0.41
2019-04-07T04:26:56.956Z,-0.35
2019-04-07T04:28:07.856Z,-0.42
2019-04-07T04:29:18.794Z,-0.38
2019-04-07T04:30:32.641Z,-0.48
2019-04-07T04:31:43.405Z,-0.49
2019-04-07T04:32:55.416Z,-0.49
2019-04-07T04:34:06.503Z,-0.53
2019-04-07T04:35:17.807Z,-0.57
2019-04-07T04:36:29.645Z,-0.54
2019-04-07T04:37:55.278Z,-0.59
2019-04-07T04:39:08.221Z,-0.63
2019-04-07T04:40:24.761Z,-0.63
2019-04-07T04:41:36.332Z,-0.57
2019-04-07T04:42:46.917Z,-0.67
2019-04-07T04:44:00.385Z,-0.66
2019-04-07T04:45:11.072Z,-0.77
2019-04-07T04:46:21.874Z,-0.74
2019-04-07T04:47:33.972Z,-0.78
2019-04-07T04:48:45.977Z,-0.75
2019-04-07T04:49:57.866Z,-0.81
2019-04-07T04:51:09.708Z,-0.82
2019-04-07T04:52:23.993Z,-0.99
2019-04-07T04:53:35.686Z,-1.03
2019-04-07T04:54:47.461Z,-1.04
2019-04-07T04:55:58.966Z,-1.09
2019-04-07T04:57:14.276Z,-1.09
2019-04-07T04:58:25.866Z,-1.01
2019-04-07T04:59:40.115Z,-1.01
2019-04-07T05:00:50.955Z,-1
2019-04-07T05:02:02.450Z,-0.97
2019-04-07T05:03:15.088Z,-1.01
2019-04-07T05:04:29.341Z,-0.97
2019-04-07T05:05:41.475Z,-0.82
2019-04-07T05:06:52.674Z,-1.01
2019-04-07T05:08:09.478Z,-0.94
2019-04-07T05:09:21.378Z,-0.87
2019-04-07T05:10:45.653Z,-0.77
2019-04-07T05:11:56.551Z,-0.72
2019-04-07T05:13:10.111Z,-0.67
2019-04-07T05:14:20.067Z,-0.63
2019-04-07T05:15:32.530Z,-0.64
2019-04-07T05:16:43.649Z,-0.56
2019-04-07T05:17:54.060Z,-0.41
2019-04-07T05:19:06.168Z,-0.41
2019-04-07T05:20:16.368Z,-0.27
2019-04-07T05:21:27.461Z,-0.13
2019-04-07T05:22:38.360Z,-0.05
2019-04-07T05:23:50.520Z,0.05
2019-04-07T05:25:02.274Z,0
2019-04-07T05:26:13.554Z,0.06
2019-04-07T05:27:24.260Z,0.18
2019-04-07T05:28:40.586Z,0.26
2019-04-07T05:29:52.075Z,0.33
2019-04-07T05:31:03.312Z,0.4
2019-04-07T05:32:15.713Z,0.3
2019-04-07T05:33:27.762Z,0.49
2019-04-07T05:34:40.060Z,0.51
2019-04-07T05:35:51.627Z,0.59
2019-04-07T05:37:02.391Z,0.59
2019-04-07T05:38:13.748Z,0.64
2019-04-07T05:39:24.991Z,0.74
2019-04-07T05:40:35.660Z,0.71
2019-04-07T05:41:46.512Z,0.82
2019-04-07T05:42:56.776Z,1
2019-04-07T05:44:07.725Z,1
2019-04-07T05:45:17.683Z,0.92
2019-04-07T05:46:31.399Z,0.99
2019-04-07T05:47:54.310Z,1.03
2019-04-07T05:49:05.499Z,1
2019-04-07T05:50:16.806Z,1.21
2019-04-07T05:51:32.731Z,1.13
2019-04-07T05:52:46.534Z,1.16
2019-04-07T05:53:57.066Z,1.14
2019-04-07T05:55:07.868Z,1.27
2019-04-07T05:56:21.312Z,1.27
2019-04-07T05:57:40.301Z,1.21
2019-04-07T05:58:51.694Z,1.24
2019-04-07T06:00:04.195Z,1.18
2019-04-07T06:01:25.927Z,1.2
2019-04-07T06:02:38.931Z,1.21
2019-04-07T06:03:51.115Z,1.22
2019-04-07T06:05:06.498Z,1.12
2019-04-07T06:06:19.934Z,1.12
2019-04-07T06:07:39.161Z,1.24
2019-04-07T06:08:53.156Z,1.24
2019-04-07T06:10:05.360Z,1.25
2019-04-07T06:11:16.828Z,1.25
2019-04-07T06:12:27.478Z,1.32
2019-04-07T06:13:38.089Z,1.21
2019-04-07T06:14:53.269Z,1.36
2019-04-07T06:16:05.433Z,1.31
2019-04-07T06:17:16.214Z,1.52
2019-04-07T06:18:27.002Z,1.61
2019-04-07T06:19:46.030Z,1.78
2019-04-07T06:20:59.440Z,1.76
2019-04-07T06:22:12.630Z,1.95
2019-04-07T06:23:31.974Z,2.04
2019-04-07T06:24:43.789Z,2.14
2019-04-07T06:25:57.246Z,2.25
2019-04-07T06:27:09.757Z,2.36
2019-04-07T06:28:24.742Z,2.46
2019-04-07T06:29:35.796Z,2.52
2019-04-07T06:30:47.355Z,2.64
2019-04-07T06:31:57.821Z,2.68
2019-04-07T06:33:16.399Z,2.76
2019-04-07T06:34:28.060Z,2.72
2019-04-07T06:35:39.039Z,2.65
2019-04-07T06:36:58.242Z,2.59
2019-04-07T06:38:12.371Z,2.54
2019-04-07T06:39:38.950Z,2.52
2019-04-07T06:40:54.150Z,2.52
2019-04-07T06:42:10.952Z,2.37
2019-04-07T06:43:22.298Z,2.19
2019-04-07T06:44:33.421Z,2.22
2019-04-07T06:45:44.196Z,2.23
2019-04-07T06:46:57.827Z,2.25
2019-04-07T06:48:14.873Z,2.18
2019-04-07T06:49:27.751Z,2.18
2019-04-07T06:51:00.738Z,2.22
2019-04-07T06:52:13.745Z,2.16
2019-04-07T06:53:25.975Z,2.34
2019-04-07T06:54:37.559Z,2.26
2019-04-07T06:55:48.666Z,2.44
2019-04-07T06:57:00.109Z,2.34
2019-04-07T06:58:15.331Z,2.41
2019-04-07T06:59:27.498Z,2.55
2019-04-07T07:00:38.835Z,2.51
2019-04-07T07:01:50.209Z,2.52
2019-04-07T07:03:09.877Z,2.59
2019-04-07T07:04:22.291Z,2.59
2019-04-07T07:05:37.337Z,2.7
2019-04-07T07:06:53.970Z,2.64
2019-04-07T07:08:06.252Z,2.75
2019-04-07T07:09:20.145Z,2.79
2019-04-07T07:10:43.137Z,2.94
2019-04-07T07:11:56.429Z,2.91
2019-04-07T07:13:32.144Z,3.08
2019-04-07T07:14:52.722Z,3.19
2019-04-07T07:16:14.571Z,3.27
2019-04-07T07:17:26.831Z,3.22
2019-04-07T07:18:38.187Z,3.31
2019-04-07T07:19:50.061Z,3.37
2019-04-07T07:21:09.946Z,3.5
2019-04-07T07:22:23.404Z,3.53
2019-04-07T07:23:34.465Z,3.68
2019-04-07T07:24:55.617Z,3.78
2019-04-07T07:26:09.841Z,3.86
2019-04-07T07:27:20.729Z,3.89
2019-04-07T07:28:32.592Z,4.04
2019-04-07T07:29:50.597Z,4.12
2019-04-07T07:31:05.304Z,4.27
2019-04-07T07:32:15.989Z,4.27
2019-04-07T07:33:27.132Z,4.45
2019-04-07T07:34:39.779Z,4.48
2019-04-07T07:35:54.232Z,4.39
2019-04-07T07:37:05.564Z,4.49
2019-04-07T07:38:18.066Z,4.56
2019-04-07T07:39:29.481Z,4.52
2019-04-07T07:40:41.773Z,4.5
2019-04-07T07:41:58.333Z,4.61
2019-04-07T07:43:09.758Z,4.71
2019-04-07T07:44:21.221Z,4.83
2019-04-07T07:45:32.923Z,4.84
2019-04-07T07:46:52.741Z,4.92
2019-04-07T07:48:04.109Z,4.98
2019-04-07T07:49:14.874Z,4.89
2019-04-07T07:50:25.898Z,4.7
2019-04-07T07:51:44.483Z,4.76
2019-04-07T07:52:59.633Z,4.5
2019-04-07T07:54:12.874Z,4.32
2019-04-07T07:55:25.188Z,4.45
2019-04-07T07:56:52.500Z,4.24
2019-04-07T07:58:04.145Z,4.2
2019-04-07T07:59:16.570Z,4.27
2019-04-07T08:00:28.148Z,4.28
2019-04-07T08:01:50.187Z,4.3
2019-04-07T08:03:01.857Z,4.25
2019-04-07T08:04:15.199Z,4.43
2019-04-07T08:05:36.625Z,4.43
2019-04-07T08:06:47.881Z,4.46
2019-04-07T08:07:59.363Z,4.5
2019-04-07T08:09:23.874Z,4.53
2019-04-07T08:10:36.283Z,4.52
2019-04-07T08:11:48.950Z,4.6
2019-04-07T08:13:04.954Z,4.58
2019-04-07T08:14:20.751Z,4.32
2019-04-07T08:15:37.060Z,4.3
2019-04-07T08:16:49.023Z,4.32
2019-04-07T08:18:08.218Z,4.32
2019-04-07T08:19:20.034Z,4.31
2019-04-07T08:20:37.460Z,4.24
2019-04-07T08:21:55.514Z,4.28
2019-04-07T08:23:07.923Z,4.3
2019-04-07T08:24:24.323Z,4.22
2019-04-07T08:25:36.826Z,4.22
2019-04-07T08:26:50.298Z,4.22
2019-04-07T08:28:09.346Z,4.22
2019-04-07T08:29:22.459Z,4.25
2019-04-07T08:30:33.229Z,4.32
2019-04-07T08:31:50.911Z,4.36
2019-04-07T08:33:05.908Z,4.56
2019-04-07T08:34:15.771Z,4.53
2019-04-07T08:35:28.807Z,4.38
2019-04-07T08:36:50.518Z,4.43
2019-04-07T08:38:02.182Z,4.5
2019-04-07T08:39:33.514Z,4.45
2019-04-07T08:40:45.567Z,4.67
2019-04-07T08:41:59.380Z,4.75
2019-04-07T08:43:21.127Z,4.71
2019-04-07T08:44:35.444Z,4.83
2019-04-07T08:45:47.050Z,4.74
2019-04-07T08:47:01.418Z,4.68
2019-04-07T08:48:12.182Z,4.66
2019-04-07T08:49:32.138Z,4.68
2019-04-07T08:50:45.249Z,4.83
2019-04-07T08:51:57.324Z,4.92
2019-04-07T08:53:19.403Z,5.01
2019-04-07T08:54:30.615Z,5.07
2019-04-07T08:55:41.719Z,5.13
2019-04-07T08:56:59.179Z,4.98
2019-04-07T08:58:22.602Z,5.08
2019-04-07T08:59:45.638Z,5.04
2019-04-07T09:00:58.641Z,5.01
2019-04-07T09:02:09.974Z,5.18
2019-04-07T09:03:21.851Z,5.37
2019-04-07T09:04:32.002Z,5.61
2019-04-07T09:05:43.155Z,5.73
2019-04-07T09:06:53.784Z,5.69
2019-04-07T09:08:11.776Z,5.8
2019-04-07T09:09:43.236Z,5.8
2019-04-07T09:10:58.177Z,5.8
2019-04-07T09:12:09.218Z,5.74
2019-04-07T09:13:19.886Z,5.59
2019-04-07T09:14:30.846Z,5.64
2019-04-07T09:15:51.328Z,5.65
2019-04-07T09:17:03.416Z,5.64
2019-04-07T09:18:18.067Z,5.61
2019-04-07T09:19:30.030Z,5.76
2019-04-07T09:20:51.835Z,5.79
2019-04-07T09:22:03.084Z,5.87
2019-04-07T09:23:15.871Z,5.83
2019-04-07T09:24:35.980Z,5.97
2019-04-07T09:25:49.108Z,5.92
2019-04-07T09:27:00.227Z,5.94
2019-04-07T09:28:11.827Z,5.74
2019-04-07T09:29:32.550Z,5.83
2019-04-07T09:30:44.655Z,5.87
2019-04-07T09:31:56.526Z,5.79
2019-04-07T09:33:08.535Z,5.64
2019-04-07T09:34:25.184Z,5.73
2019-04-07T09:35:36.215Z,5.77
2019-04-07T09:36:53.022Z,5.72
2019-04-07T09:38:04.387Z,5.81
2019-04-07T09:39:17.984Z,5.92
2019-04-07T09:40:30.364Z,6.07
2019-04-07T09:41:45.102Z,6.34
2019-04-07T09:43:04.161Z,6.46
2019-04-07T09:44:15.873Z,6.67
2019-04-07T09:45:26.500Z,6.47
2019-04-07T09:46:41.817Z,6.29
2019-04-07T09:47:58.878Z,6.34
2019-04-07T09:49:10.207Z,6.43
2019-04-07T09:50:21.614Z,6.35
2019-04-07T09:51:41.450Z,6.25
2019-04-07T09:52:53.987Z,6.52
2019-04-07T09:54:04.010Z,6.52
2019-04-07T09:55:15.497Z,6.7
2019-04-07T09:56:29.541Z,6.6
2019-04-07T09:57:45.024Z,6.46
2019-04-07T09:58:59.176Z,6.35
2019-04-07T10:00:12.635Z,6.38
2019-04-07T10:01:34.059Z,6.34
2019-04-07T10:02:45.849Z,6.32
2019-04-07T10:03:56.838Z,6.2
2019-04-07T10:05:06.527Z,6.36
2019-04-07T10:06:19.227Z,6.52
2019-04-07T10:07:29.463Z,6.34
2019-04-07T10:08:41.837Z,6.49
2019-04-07T10:10:08.843Z,6.47
2019-04-07T10:11:22.379Z,6.49
2019-04-07T10:12:35.871Z,6.5
2019-04-07T10:13:47.479Z,6.7
2019-04-07T10:15:00.638Z,6.7
2019-04-07T10:16:14.848Z,6.7
2019-04-07T10:17:26.673Z,6.64
2019-04-07T10:18:39.950Z,6.78
2019-04-07T10:19:52.645Z,6.74
2019-04-07T10:21:03.915Z,6.59
2019-04-07T10:22:14.987Z,6.6
2019-04-07T10:23:26.230Z,6.67
2019-04-07T10:24:38.090Z,6.75
2019-04-07T10:25:49.490Z,6.78
2019-04-07T10:27:01.439Z,6.75
2019-04-07T10:28:16.617Z,6.87
2019-04-07T10:29:27.945Z,6.72
2019-04-07T10:30:41.439Z,6.92
2019-04-07T10:31:52.914Z,6.8
2019-04-07T10:33:04.236Z,6.87
2019-04-07T10:34:18.669Z,6.96
2019-04-07T10:35:30.795Z,7.07
2019-04-07T10:36:42.299Z,7.21
2019-04-07T10:37:55.692Z,7.1
2019-04-07T10:39:07.253Z,7.15
2019-04-07T10:40:26.450Z,7.26
2019-04-07T10:41:38.102Z,7.28
2019-04-07T10:42:49.111Z,7.36
2019-04-07T10:44:02.374Z,7.43
2019-04-07T10:45:15.254Z,7.4
2019-04-07T10:46:27.096Z,7.7
2019-04-07T10:47:41.187Z,7.84
2019-04-07T10:48:52.291Z,7.9
2019-04-07T10:50:11.220Z,8.06
2019-04-07T10:51:22.976Z,8.16
2019-04-07T10:52:33.976Z,8.42
2019-04-07T10:53:45.489Z,8.69
2019-04-07T10:54:56.443Z,8.69
2019-04-07T10:56:08.866Z,8.5
2019-04-07T10:57:22.107Z,8.57
2019-04-07T10:58:33.696Z,8.53
2019-04-07T10:59:45.315Z,8.36
2019-04-07T11:00:57.481Z,8.18
2019-04-07T11:02:08.411Z,8.41
2019-04-07T11:03:19.786Z,8.34
2019-04-07T11:04:30.773Z,8.16
2019-04-07T11:05:43.482Z,8.05
2019-04-07T11:06:54.867Z,7.74
2019-04-07T11:08:05.977Z,7.96
2019-04-07T11:09:16.845Z,7.95
2019-04-07T11:10:41.918Z,7.88
2019-04-07T11:11:54.818Z,8.05
2019-04-07T11:13:05.663Z,8.17
2019-04-07T11:14:19.632Z,8.18
2019-04-07T11:15:33.079Z,8.42
2019-04-07T11:16:45.263Z,8.71
2019-04-07T11:17:57.057Z,8.78
2019-04-07T11:19:07.773Z,9.24
2019-04-07T11:20:19.498Z,9.31
2019-04-07T11:21:31.275Z,9.42
2019-04-07T11:22:42.982Z,9.08
2019-04-07T11:23:54.827Z,8.77
2019-04-07T11:25:06.458Z,8.46
2019-04-07T11:26:16.724Z,8.38
2019-04-07T11:27:27.631Z,8.23
2019-04-07T11:28:38.994Z,8.06
2019-04-07T11:29:50.622Z,8.06
2019-04-07T11:31:03.774Z,8.09
2019-04-07T11:32:15.154Z,8.02
2019-04-07T11:33:25.738Z,7.91
2019-04-07T11:34:36.555Z,8.01
2019-04-07T11:35:47.588Z,7.83
2019-04-07T11:36:59.581Z,7.84
2019-04-07T11:38:10.686Z,7.77
2019-04-07T11:39:23.081Z,7.84
2019-04-07T11:40:52.504Z,7.88
2019-04-07T11:42:05.004Z,8.21
2019-04-07T11:43:17.710Z,8.21
2019-04-07T11:44:31.055Z,8.09
2019-04-07T11:45:59.948Z,8.2
2019-04-07T11:47:12.355Z,8.24
2019-04-07T11:48:25.788Z,7.95
2019-04-07T11:49:37.556Z,7.91
2019-04-07T11:50:52.979Z,7.98
2019-04-07T11:52:04.056Z,7.9
2019-04-07T11:53:14.541Z,7.8
2019-04-07T11:54:25.210Z,7.72
2019-04-07T11:55:36.682Z,7.4
2019-04-07T11:56:49.072Z,7.47
2019-04-07T11:58:31.178Z,7.23
2019-04-07T11:59:44.737Z,7.26
2019-04-07T12:00:57.096Z,7.39
2019-04-07T12:02:11.052Z,7.43
2019-04-07T12:03:31.382Z,7.23
2019-04-07T12:04:43.565Z,7.22
2019-04-07T12:05:56.993Z,7.37
2019-04-07T12:07:08.922Z,7.37
2019-04-07T12:08:31.484Z,7.53
2019-04-07T12:09:46.725Z,7.48
2019-04-07T12:11:09.386Z,7.4
2019-04-07T12:12:24.502Z,7.44
2019-04-07T12:13:36.084Z,7.58
2019-04-07T12:14:57.713Z,7.83
2019-04-07T12:16:09.223Z,7.95
2019-04-07T12:17:20.925Z,8.21
2019-04-07T12:18:32.858Z,8.26
2019-04-07T12:19:46.164Z,8.42
2019-04-07T12:21:07.552Z,8.41
2019-04-07T12:22:32.567Z,8.41
2019-04-07T12:23:44.384Z,8.18
2019-04-07T12:25:06.638Z,8.31
2019-04-07T12:26:18.899Z,8.41
2019-04-07T12:27:30.263Z,8.42
2019-04-07T12:28:41.332Z,8.39
2019-04-07T12:29:56.916Z,8.42
2019-04-07T12:31:08.581Z,8.41
2019-04-07T12:32:21.262Z,8.45
2019-04-07T12:33:32.859Z,8.53
2019-04-07T12:34:52.528Z,8.52
2019-04-07T12:36:03.224Z,8.6
2019-04-07T12:37:15.598Z,8.57
2019-04-07T12:38:27.798Z,8.71
2019-04-07T12:39:41.712Z,8.78
2019-04-07T12:41:21.642Z,8.87
2019-04-07T12:42:40.592Z,8.95
2019-04-07T12:43:55.214Z,8.79
2019-04-07T12:45:07.914Z,8.89
2019-04-07T12:46:21.751Z,8.9
2019-04-07T12:47:33.203Z,8.84
2019-04-07T12:48:44.502Z,9.22
2019-04-07T12:49:56.188Z,9.94
2019-04-07T12:51:09.478Z,10.77
2019-04-07T12:52:22.503Z,10.83
2019-04-07T12:53:42.168Z,11.01
2019-04-07T12:54:54.490Z,10.87
2019-04-07T12:56:08.061Z,11.1
2019-04-07T12:57:19.502Z,11.62
2019-04-07T12:58:31.221Z,12.21
2019-04-07T12:59:42.414Z,12.83
2019-04-07T13:01:19.015Z,13.64
2019-04-07T13:02:31.775Z,13.97
2019-04-07T13:03:43.928Z,14.49
2019-04-07T13:04:54.176Z,15.07
2019-04-07T13:06:12.912Z,15.83
2019-04-07T13:07:25.482Z,16.28
2019-04-07T13:08:38.160Z,16.44
2019-04-07T13:09:50.552Z,16.82
2019-04-07T13:11:04.657Z,16.65
2019-04-07T13:12:32.225Z,15.78
2019-04-07T13:13:44.898Z,15.22
2019-04-07T13:14:56.117Z,14.22
2019-04-07T13:16:09.070Z,13.61
2019-04-07T13:17:21.440Z,13.52
2019-04-07T13:18:42.445Z,13.16
2019-04-07T13:19:58.192Z,12.98
2019-04-07T13:21:10.363Z,12.72
2019-04-07T13:22:22.423Z,12.37
2019-04-07T13:23:39.706Z,11.81
2019-04-07T13:24:53.869Z,11.45
2019-04-07T13:26:10.222Z,11.12
2019-04-07T13:27:23.237Z,10.71
2019-04-07T13:28:35.889Z,10.33
2019-04-07T13:29:48.226Z,9.92
2019-04-07T13:30:59.567Z,9.8
2019-04-07T13:32:12.107Z,9.52
2019-04-07T13:33:29.657Z,9.55
2019-04-07T13:34:41.311Z,9.34
2019-04-07T13:35:51.844Z,9.37
2019-04-07T13:37:04.481Z,9.33
2019-04-07T13:38:15.407Z,9.29
2019-04-07T13:39:26.297Z,9.39
2019-04-07T13:40:47.601Z,9.54
2019-04-07T13:42:02.179Z,10.2
2019-04-07T13:43:14.466Z,10.62
2019-04-07T13:44:26.085Z,11.13
2019-04-07T13:45:38.738Z,11.53
2019-04-07T13:46:54.300Z,11.86
2019-04-07T13:48:08.998Z,11.83
2019-04-07T13:49:32.213Z,11.71
2019-04-07T13:50:43.814Z,10.87
2019-04-07T13:53:08.800Z,11.19
2019-04-07T13:54:21.072Z,11.27
2019-04-07T13:55:44.106Z,11.45
2019-04-07T13:56:57.293Z,11.63
2019-04-07T13:58:11.007Z,11.77
2019-04-07T13:59:23.532Z,11.59
2019-04-07T14:00:33.953Z,11.76
2019-04-07T14:01:45.093Z,11.77
2019-04-07T14:03:01.464Z,11.44
2019-04-07T14:04:13.177Z,11.51
2019-04-07T14:05:25.943Z,11.08
2019-04-07T14:06:37.200Z,11.76
2019-04-07T14:07:58.029Z,12.29
2019-04-07T14:09:09.346Z,12.39
2019-04-07T14:10:21.216Z,11.52
2019-04-07T14:11:33.850Z,11.2
2019-04-07T14:13:10.447Z,11.53
2019-04-07T14:14:22.257Z,11.96
2019-04-07T14:15:34.804Z,12.25
2019-04-07T14:16:45.123Z,12.3
2019-04-07T14:17:56.870Z,12.65
2019-04-07T14:19:09.116Z,13.08
2019-04-07T14:20:22.546Z,13.2
2019-04-07T14:21:34.939Z,13.54
2019-04-07T14:22:46.567Z,13.62
2019-04-07T14:24:01.527Z,13.09
2019-04-07T14:25:15.558Z,13.24
2019-04-07T14:26:25.885Z,13.64
2019-04-07T14:27:37.177Z,13.7
2019-04-07T14:28:48.956Z,13.93
2019-04-07T14:30:00.338Z,13.79
2019-04-07T14:31:13.212Z,14.19
2019-04-07T14:32:24.422Z,14.05
2019-04-07T14:33:36.994Z,14.11
2019-04-07T14:34:51.125Z,14.25
2019-04-07T14:36:04.249Z,13.42
2019-04-07T14:37:16.361Z,13.79
2019-04-07T14:38:29.049Z,13.85
2019-04-07T14:39:42.114Z,13.85
2019-04-07T14:40:54.884Z,14.08
2019-04-07T14:42:12.039Z,13.79
2019-04-07T14:43:24.614Z,13.45
2019-04-07T14:44:36.879Z,13.16
2019-04-07T14:45:51.595Z,13.62
2019-04-07T14:47:03.241Z,13.36
2019-04-07T14:48:16.145Z,13.36
2019-04-07T14:49:30.792Z,13.62
2019-04-07T14:50:44.701Z,13.79
2019-04-07T14:51:56.026Z,14.31
2019-04-07T14:53:07.693Z,14.4
2019-04-07T14:54:20.890Z,13.93
2019-04-07T14:55:35.660Z,14.38
2019-04-07T14:56:48.787Z,14.34
2019-04-07T14:58:01.606Z,14.15
2019-04-07T14:59:15.318Z,13.93
2019-04-07T15:00:31.772Z,13.47
2019-04-07T15:01:43.607Z,13.28
2019-04-07T15:02:56.511Z,13.08
2019-04-07T15:04:08.364Z,12.88
2019-04-07T15:05:25.331Z,13.33
2019-04-07T15:06:39.517Z,13.79
2019-04-07T15:07:51.687Z,14.18
2019-04-07T15:09:10.752Z,14.44
2019-04-07T15:10:24.868Z,14.73
2019-04-07T15:11:36.842Z,15.08
2019-04-07T15:12:50.151Z,15.23
2019-04-07T15:14:06.158Z,15.44
2019-04-07T15:15:18.459Z,15.8
2019-04-07T15:16:31.678Z,16.02
2019-04-07T15:17:45.592Z,16.17
2019-04-07T15:18:57.555Z,16.24
2019-04-07T15:20:12.786Z,16.05
2019-04-07T15:21:27.347Z,16.18
2019-04-07T15:22:38.954Z,16.41
2019-04-07T15:23:56.164Z,15.94
2019-04-07T15:25:15.147Z,16.17
2019-04-07T15:26:27.193Z,16.17
2019-04-07T15:27:40.120Z,16.08
2019-04-07T15:28:52.404Z,16.1
2019-04-07T15:30:16.816Z,16.39
2019-04-07T15:31:28.800Z,16.36
2019-04-07T15:32:41.606Z,16.06
2019-04-07T15:33:53.348Z,16.32
2019-04-07T15:35:11.800Z,15.9
2019-04-07T15:36:25.357Z,15.98
2019-04-07T15:37:39.303Z,15.83
2019-04-07T15:38:50.120Z,15.7
2019-04-07T15:40:09.632Z,15.45
2019-04-07T15:41:23.312Z,14.73
2019-04-07T15:42:51.109Z,14.36
2019-04-07T15:44:10.044Z,14.2
2019-04-07T15:45:26.616Z,13.75
2019-04-07T15:46:37.953Z,13.47
2019-04-07T15:47:52.860Z,13.09
2019-04-07T15:49:07.873Z,12.66
2019-04-07T15:50:18.666Z,12.53
2019-04-07T15:51:34.009Z,12.2
2019-04-07T15:52:51.156Z,12.07
2019-04-07T15:54:02.664Z,11.88
2019-04-07T15:55:17.179Z,11.67
2019-04-07T15:56:33.590Z,11.58
2019-04-07T15:57:46.393Z,11.45
2019-04-07T15:59:06.077Z,11.2
2019-04-07T16:00:18.444Z,11.02
2019-04-07T16:01:30.640Z,11
2019-04-07T16:02:49.984Z,10.69
2019-04-07T16:04:05.815Z,10.59
2019-04-07T16:05:17.850Z,10.43
2019-04-07T16:06:28.402Z,10.39
2019-04-07T16:07:43.793Z,10.24
2019-04-07T16:09:03.994Z,10.1
2019-04-07T16:10:42.422Z,10.1
2019-04-07T16:11:57.523Z,9.99
2019-04-07T16:13:09.834Z,9.94
2019-04-07T16:14:20.862Z,9.77
2019-04-07T16:15:33.255Z,9.7